Погода Топоровона 2 недели

Смоленская область, Россия

22 мая-03 июня
  • 22мая
    Сегодня
    +10°
    +23°
    Облачно с прояснениями
    ВремяПогодаТемператураВлажностьДавлениеВетер, м/сВероятность осадков
    00:00Ясно и безоблачно+13°C89 %745 мм1.8 м/с2 %
    03:00Ясно и безоблачно+10°C94 %745 мм2.1 м/с2 %
    06:00Ясно и безоблачно+12°C91 %746 мм2.3 м/с2 %
    09:00Ясно и безоблачно+19°C70 %746 мм2.2 м/с2 %
    12:00Ясно и безоблачно+22°C56 %747 мм2.7 м/с2 %
    15:00Облачно с прояснениями+22°C50 %746 мм3.1 м/с16 %
    18:00Небольшая облачность+21°C61 %746 мм2.4 м/с25 %
    21:00Практически безоблачно+17°C71 %747 мм2.7 м/с2 %
  • 23мая
    Четверг
    +7°
    +21°
    Ясно и безоблачно
    ВремяПогодаТемператураВлажностьДавлениеВетер, м/сВероятность осадков
    00:00Ясно и безоблачно+13°C53 %747 мм3.9 м/с2 %
    03:00Ясно и безоблачно+11°C58 %748 мм3.8 м/с1 %
    06:00Ясно и безоблачно+11°C63 %749 мм3.8 м/с2 %
    09:00Ясно и безоблачно+16°C55 %750 мм4.0 м/с2 %
    12:00Ясно и безоблачно+20°C43 %751 мм5.2 м/с2 %
    15:00Ясно и безоблачно+21°C40 %750 мм4.6 м/с2 %
    18:00Ясно и безоблачно+20°C38 %750 мм4.7 м/с2 %
    21:00Ясно и безоблачно+16°C51 %751 мм3.5 м/с2 %
  • 24мая
    Пятница
    +8°
    +21°
    Ясно и безоблачно
    ВремяПогодаТемператураВлажностьДавлениеВетер, м/сВероятность осадков
    00:00Ясно и безоблачно+12°C55 %752 мм3.6 м/с2 %
    03:00Ясно и безоблачно+9°C65 %753 мм3.3 м/с2 %
    06:00Ясно и безоблачно+9°C66 %754 мм3.5 м/с2 %
    09:00Практически безоблачно+15°C46 %754 мм4.4 м/с2 %
    12:00Ясно и безоблачно+18°C36 %754 мм4.3 м/с2 %
    15:00Ясно и безоблачно+20°C33 %754 мм3.9 м/с2 %
    18:00Ясно и безоблачно+20°C35 %753 мм3.7 м/с2 %
    21:00Ясно и безоблачно+15°C54 %753 мм2.8 м/с2 %
  • 25мая
    Суббота
    +9°
    +23°
    Ясно и безоблачно
    ВремяПогодаТемператураВлажностьДавлениеВетер, м/сВероятность осадков
    00:00Ясно и безоблачно+11°C64 %753 мм2.9 м/с2 %
    03:00Ясно и безоблачно+8°C76 %753 мм2.4 м/с2 %
    06:00Ясно и безоблачно+9°C76 %753 мм2.5 м/с2 %
    09:00Ясно и безоблачно+16°C57 %753 мм2.1 м/с2 %
    12:00Ясно и безоблачно+21°C43 %752 мм2.4 м/с2 %
    15:00Ясно и безоблачно+22°C38 %751 мм2.5 м/с2 %
    18:00Ясно и безоблачно+22°C40 %750 мм2.0 м/с2 %
    21:00Ясно и безоблачно+16°C66 %749 мм2.0 м/с2 %
Мы используем cookies
Соглашаюсь